• Join FlightAware (Why Join?)
  • Login
  • US Flag 
12:58PM EDT


 

Airport Tracker/Info


-or-


 

Live Flight TrackerFlight Track Log ✈ KAP444 ✈ 27-Apr-2013 ✈ KBOS - KACK

Flight Track Log - Related Links

Times and Time Zones

All times are in EDT time to prevent confusion due to time zone crossing. See the KAP444 flight status page for this flight to view local times or setup timezone preferences in your user account.

Time Position Orientation Groundspeed Altitude Reporting Facility
EDT Latitude Longitude Course Direction KTS MPH feet Rate Location/Type
09:32AM 42.3500 -70.9833 90° East 105 121 500  Level KA90
09:33AM 42.3500 -70.9667 90° East 123 142 1,100 780 Climbing KA90
09:34AM 42.3333 -70.9333 124° Southeast 129 148 1,700 600 Climbing KA90
09:35AM 42.3000 -70.8833 132° Southeast 131 151 2,400 660 Climbing KA90
09:36AM 42.2833 -70.8500 124° Southeast 127 146 3,100 660 Climbing KA90
09:37AM 42.2667 -70.8167 124° Southeast 123 142 3,800 600 Climbing KA90
09:38AM 42.2333 -70.7833 143° Southeast 130 150 4,400 600 Climbing KA90
09:39AM 42.2000 -70.7667 160° South 135 155 5,000 480 Climbing KA90
09:40AM 42.1667 -70.7333 143° Southeast 139 160 5,400 360 Climbing KA90
09:42AM 42.1578 -70.6387 97° East  Level FlightAware Approximate
09:49AM 41.9145 -70.4814 114° Southeast  Level Estimated
09:50AM 41.9259 -70.4319 73° East  Level FlightAware Approximate
09:51AM 41.9373 -70.3824 73° East  Level FlightAware Approximate
09:52AM 41.9486 -70.3328 73° East  Level FlightAware Approximate
09:53AM 41.9599 -70.2833 73° East  Level FlightAware Approximate
09:54AM 41.9224 -70.2713 180° South  Level Estimated
09:55AM 41.8887 -70.2463 151° Southeast  Level FlightAware Approximate
09:56AM 41.8549 -70.2213 151° Southeast  Level FlightAware Approximate
09:57AM 41.8212 -70.1963 151° Southeast  Level FlightAware Approximate
09:58AM 41.7874 -70.1713 151° Southeast  Level FlightAware Approximate
09:59AM 41.7536 -70.1464 151° Southeast  Level FlightAware Approximate
10:00AM 41.7198 -70.1215 151° Southeast  Level FlightAware Approximate
10:01AM 41.6861 -70.0966 151° Southeast  Level FlightAware Approximate
10:02AM 41.6523 -70.0717 151° Southeast  Level FlightAware Approximate
10:03AM 41.6185 -70.0469 151° Southeast  Level FlightAware Approximate
10:04AM 41.5847 -70.0221 151° Southeast  Level FlightAware Approximate
10:05AM 41.5925 -70.0348 189° South  Level FlightAware Approximate
10:06AM 41.5544 -70.0425 189° South  Level FlightAware Approximate
10:07AM 41.5163 -70.0500 180° South  Level FlightAware Approximate
10:08AM 41.4777 -70.0500 180° South  Level FlightAware Approximate
10:09AM 41.4392 -70.0500 180° South  Level FlightAware Approximate
10:10AM 41.4006 -70.0500 180° South  Level FlightAware Approximate
10:11AM 41.3621 -70.0500 180° South  Level FlightAware Approximate
10:12AM 41.3235 -70.0500 180° South  Level FlightAware Approximate
10:13AM 41.2850 -70.0500 180° South  Level FlightAware Approximate
10:14AM 41.2500 -70.0500 180° South  Level FlightAware Approximate
10:15AM 41.2531 -70.0603 180° South  Level Estimated
10:16AM 41.2531 -70.0603 180° South  Level Estimated
10:17AM 41.2531 -70.0603 180° South  Level Estimated
10:18AM 41.2531 -70.0603 180° South  Level Estimated
10:19AM 41.2531 -70.0603 180° South  Level Estimated
10:20AM 41.2531 -70.0603 180° South  Level Estimated
10:21AM 41.2531 -70.0603 180° South  Level Estimated
10:22AM 41.2531 -70.0603 180° South  Level Estimated
10:23AM 41.2531 -70.0603 180° South  Level Estimated
10:24AM 41.2531 -70.0603 180° South  Level Estimated
10:25AM 41.2531 -70.0603 180° South  Level Estimated
10:26AM 41.2531 -70.0603 180° South  Level Estimated
10:27AM 41.2531 -70.0603 180° South  Level Estimated
10:28AM 41.2531 -70.0603 180° South  Level Estimated
10:29AM 41.2531 -70.0603 180° South  Level Estimated